Berlin, PA (15530)

11:19 PM EDT on May 06, 2015 (GMT -0400)
Berlin Borough | | Change Station
CLOSE
Current Station
Personal Weather Station
Location: Berlin, PA
Elevation: 2306 ft
Nearby Weather Stations

Elev 2306 ft 39.92 °N, 78.95 °W | Updated 14 minutes ago

Partly Cloudy
Partly Cloudy
59.5 °F
Feels Like 59.5 °F
N
0.0
Wind Variable Wind from SSE

Today
High -- | Low -- °F
--% Chance of Precip.
Yesterday
High -- | Low -- °F
Precip. -- in
6:10 AM 8:15 PM
Waning Gibbous, 91% visible
Pressure 30.26 in
Visibility 7.0 miles
Clouds Scattered Clouds 7000 ft
Dew Point 56 °F
Humidity 88%
Rainfall 0.00 in
Snow Depth Not available.
UV 0 out of 12
Pollen 5.70 out of 12
Air Quality Not available.
Flu Activity Sporadic
METAR KCBE 070259Z AUTO 00000KT 7SM SCT070 17/17 A3026 RMK AO1

More Conditions Fewer Conditions

Pressure 30.26 in
Visibility 7.0 miles
Clouds Scattered Clouds 7000 ft
Dew Point 56 °F
Humidity 88%
Rainfall 0.00 in
Snow Depth Not available.
UV 0 out of 12
Pollen 5.70 out of 12
Air Quality Not available.
Flu Activity Sporadic
METAR KCBE 070259Z AUTO 00000KT 7SM SCT070 17/17 A3026 RMK AO1

More Conditions Fewer Conditions

10-Day Weather Forecast

Almanac

Astronomy

May. 06, 2015 Rise Set
Actual Time
Civil Twilight
Nautical Twilight
Astronomical Twilight
Moon
Length of Visible Light
Length of Day
Tomorrow will be .
, % of the Moon is Illuminated

Today's Extremes

State Highs State Lows

Community

WunderPhotos

Upload Photos

1,819,100 photos uploaded!

WunderBlogs® & News

Nearby

Air Quality

  Air Quality AQ Index Pollutant
Not available.

Snow Depth

Station Depth Elevation

Earthquake Activity

City Distance Mag. Time & Date
Minimum magnitude displayed is 2.5.

Coastal Water Temperatures

Place Temperature

Stations

Nearby Weather Stations

Station Location Temp. Windchill Dew Point Humidity Wind Precip. Elev Updated Type